createdAt,value
2023-05-14T00:02:27.572Z,13.84
2023-05-14T00:07:31.149Z,13.86
2023-05-14T00:12:35.341Z,13.83
2023-05-14T00:17:39.015Z,13.78
2023-05-14T00:22:42.149Z,13.71
2023-05-14T00:27:46.306Z,13.64
2023-05-14T00:32:49.139Z,13.64
2023-05-14T00:37:52.047Z,13.58
2023-05-14T00:42:56.633Z,13.63
2023-05-14T00:47:59.620Z,13.58
2023-05-14T00:53:02.601Z,13.58
2023-05-14T00:58:09.313Z,13.57
2023-05-14T01:03:12.217Z,13.58
2023-05-14T01:08:21.964Z,13.54
2023-05-14T01:13:28.551Z,13.55
2023-05-14T01:18:33.735Z,13.54
2023-05-14T01:23:37.925Z,13.51
2023-05-14T01:28:40.940Z,13.46
2023-05-14T01:33:44.513Z,13.42
2023-05-14T01:38:51.148Z,13.38
2023-05-14T01:43:55.092Z,13.40
2023-05-14T01:48:57.925Z,13.35
2023-05-14T01:54:02.110Z,13.32
2023-05-14T01:59:05.041Z,13.29
2023-05-14T02:04:08.509Z,13.24
2023-05-14T02:09:12.650Z,13.19
2023-05-14T02:14:15.782Z,13.15
2023-05-14T02:19:18.947Z,13.13
2023-05-14T02:24:23.280Z,13.08
2023-05-14T02:29:26.258Z,13.07
2023-05-14T02:34:29.296Z,13.08
2023-05-14T02:39:33.461Z,13.06
2023-05-14T02:44:36.260Z,13.04
2023-05-14T02:49:40.180Z,13.03
2023-05-14T02:54:44.785Z,13.03
2023-05-14T02:59:47.586Z,13.03
2023-05-14T03:04:50.729Z,12.98
2023-05-14T03:09:54.899Z,13.02
2023-05-14T03:14:57.843Z,13.01
2023-05-14T03:20:02.626Z,13.03
2023-05-14T03:25:08.176Z,13.03
2023-05-14T03:30:12.805Z,13.06
2023-05-14T03:35:16.569Z,13.03
2023-05-14T03:40:21.457Z,13.04
2023-05-14T03:45:52.322Z,13.07
2023-05-14T03:50:55.606Z,13.11
2023-05-14T03:56:00.315Z,13.10
2023-05-14T04:01:03.686Z,13.14
2023-05-14T04:06:07.300Z,13.16
2023-05-14T04:11:12.447Z,13.17
2023-05-14T04:16:15.378Z,13.18
2023-05-14T04:21:18.474Z,13.27
2023-05-14T04:26:23.021Z,13.34
2023-05-14T04:31:26.081Z,13.41
2023-05-14T04:36:28.905Z,13.50
2023-05-14T04:41:33.192Z,13.61
2023-05-14T04:46:36.214Z,13.70
2023-05-14T04:51:39.063Z,13.83
2023-05-14T04:56:43.218Z,13.91
2023-05-14T05:01:46.359Z,14.05
2023-05-14T05:06:49.256Z,14.24
2023-05-14T05:11:53.500Z,14.35
2023-05-14T05:16:56.512Z,14.44
2023-05-14T05:21:59.349Z,14.60
2023-05-14T05:27:03.575Z,14.77
2023-05-14T05:32:07.685Z,14.96
2023-05-14T05:37:12.813Z,15.14
2023-05-14T05:42:17.059Z,15.38
2023-05-14T05:47:19.878Z,15.55
2023-05-14T05:52:22.728Z,15.69
2023-05-14T05:57:27.401Z,15.85
2023-05-14T06:02:30.234Z,16.07
2023-05-14T06:07:33.142Z,16.28
2023-05-14T06:12:37.273Z,16.47
2023-05-14T06:17:40.180Z,16.70
2023-05-14T06:22:43.071Z,16.76
2023-05-14T06:27:47.247Z,16.95
2023-05-14T06:32:50.102Z,17.14
2023-05-14T06:37:53.010Z,17.10
2023-05-14T06:42:57.204Z,17.00
2023-05-14T06:48:00.430Z,16.96
2023-05-14T06:53:03.387Z,17.29
2023-05-14T06:58:08.894Z,17.60
2023-05-14T07:03:11.733Z,17.49
2023-05-14T07:08:14.714Z,17.43
2023-05-14T07:13:19.594Z,17.75
2023-05-14T07:18:22.531Z,18.23
2023-05-14T07:23:25.329Z,18.95
2023-05-14T07:28:29.434Z,19.01
2023-05-14T07:33:32.228Z,18.74
2023-05-14T07:38:35.072Z,19.08
2023-05-14T07:43:40.514Z,18.88
2023-05-14T07:48:43.365Z,19.00
2023-05-14T07:53:46.236Z,19.71
2023-05-14T07:58:51.068Z,20.19
2023-05-14T08:03:54.102Z,20.09
2023-05-14T08:08:56.973Z,20.47
2023-05-14T08:14:01.167Z,20.89
2023-05-14T08:19:03.971Z,21.21
2023-05-14T08:24:07.129Z,21.63
2023-05-14T08:29:12.909Z,21.96
2023-05-14T08:34:16.928Z,22.23
2023-05-14T08:39:19.727Z,22.33
2023-05-14T08:44:31.834Z,22.43
2023-05-14T08:49:41.400Z,22.58
2023-05-14T08:54:44.456Z,22.57
2023-05-14T08:59:48.622Z,22.42
2023-05-14T09:04:53.011Z,22.42
2023-05-14T09:09:56.435Z,22.41
2023-05-14T09:15:00.628Z,22.37
2023-05-14T09:20:04.776Z,22.50
2023-05-14T09:25:12.139Z,22.68
2023-05-14T09:30:17.057Z,22.96
2023-05-14T09:35:21.460Z,22.95
2023-05-14T09:40:25.490Z,22.70
2023-05-14T09:45:30.450Z,22.57
2023-05-14T09:50:33.543Z,22.72
2023-05-14T09:55:37.750Z,22.76
2023-05-14T10:00:45.973Z,23.02
2023-05-14T10:05:51.067Z,23.22
2023-05-14T10:10:55.447Z,23.44
2023-05-14T10:16:03.629Z,23.43
2023-05-14T10:21:07.589Z,23.63
2023-05-14T10:26:11.164Z,23.81
2023-05-14T10:31:15.692Z,23.57
2023-05-14T10:36:19.122Z,23.95
2023-05-14T10:41:21.945Z,23.92
2023-05-14T10:46:26.667Z,23.89
2023-05-14T10:51:29.532Z,23.95
2023-05-14T10:56:32.344Z,24.04
2023-05-14T11:01:36.642Z,24.39
2023-05-14T11:06:39.783Z,24.55
2023-05-14T11:11:42.913Z,24.64
2023-05-14T11:16:47.101Z,24.82
2023-05-14T11:21:50.051Z,24.92
2023-05-14T11:26:55.717Z,24.67
2023-05-14T11:32:00.205Z,24.15
2023-05-14T11:37:05.113Z,24.23
2023-05-14T11:42:14.557Z,24.43
2023-05-14T11:47:19.839Z,24.50
2023-05-14T11:52:22.816Z,24.69
2023-05-14T11:57:26.604Z,24.62
2023-05-14T12:02:31.015Z,24.53
2023-05-14T12:07:33.973Z,24.77
2023-05-14T12:12:37.553Z,24.90
2023-05-14T12:17:42.227Z,25.05
2023-05-14T12:22:45.313Z,25.02
2023-05-14T12:27:48.232Z,24.86
2023-05-14T12:32:53.637Z,24.85
2023-05-14T12:37:56.677Z,24.96
2023-05-14T12:42:59.553Z,24.94
2023-05-14T12:48:03.740Z,25.11
2023-05-14T12:53:06.863Z,25.39
2023-05-14T12:58:09.972Z,25.21
2023-05-14T13:03:14.219Z,25.05
2023-05-14T13:08:17.873Z,25.07
2023-05-14T13:13:20.827Z,25.20
2023-05-14T13:18:26.637Z,25.08
2023-05-14T13:23:29.626Z,24.89
2023-05-14T13:28:32.493Z,25.09
2023-05-14T13:33:42.089Z,25.21
2023-05-14T13:38:45.849Z,25.30
2023-05-14T13:43:48.685Z,25.32
2023-05-14T13:48:52.906Z,25.34
2023-05-14T13:53:56.118Z,25.26
2023-05-14T13:58:59.298Z,24.99
2023-05-14T14:04:03.554Z,24.85
2023-05-14T14:09:06.521Z,24.87
2023-05-14T14:14:09.503Z,24.70
2023-05-14T14:19:15.438Z,24.66
2023-05-14T14:24:19.033Z,24.74
2023-05-14T14:29:23.932Z,24.74
2023-05-14T14:34:28.214Z,24.62
2023-05-14T14:39:31.024Z,24.46
2023-05-14T14:44:33.892Z,24.33
2023-05-14T14:49:38.065Z,24.05
2023-05-14T14:54:40.941Z,23.61
2023-05-14T14:59:43.822Z,23.16
2023-05-14T15:04:47.970Z,22.91
2023-05-14T15:09:50.777Z,22.66
2023-05-14T15:14:53.576Z,22.49
2023-05-14T15:19:57.790Z,22.28
2023-05-14T15:25:00.887Z,22.05
2023-05-14T15:30:03.939Z,21.93
2023-05-14T15:35:09.694Z,21.79
2023-05-14T15:40:13.499Z,21.69
2023-05-14T15:45:16.292Z,21.79
2023-05-14T15:50:20.533Z,21.77
2023-05-14T15:55:23.457Z,21.70
2023-05-14T16:00:26.510Z,21.66
2023-05-14T16:05:30.934Z,21.41
2023-05-14T16:10:33.877Z,21.18
2023-05-14T16:15:36.736Z,20.94
2023-05-14T16:20:41.437Z,20.70
2023-05-14T16:25:44.251Z,20.54
2023-05-14T16:30:47.009Z,20.24
2023-05-14T16:35:51.915Z,20.02
2023-05-14T16:40:54.759Z,19.82
2023-05-14T16:45:57.601Z,19.72
2023-05-14T16:51:01.858Z,19.47
2023-05-14T16:56:04.796Z,19.41
2023-05-14T17:01:09.908Z,19.26
2023-05-14T17:06:14.892Z,19.06
2023-05-14T17:11:17.725Z,19.01
2023-05-14T17:16:22.023Z,18.92
2023-05-14T17:21:26.346Z,18.90
2023-05-14T17:26:30.800Z,18.82
2023-05-14T17:31:33.977Z,18.63
2023-05-14T17:36:38.144Z,18.55
2023-05-14T17:41:41.989Z,18.47
2023-05-14T17:46:45.842Z,18.48
2023-05-14T17:51:50.329Z,18.36
2023-05-14T17:56:53.495Z,18.27
2023-05-14T18:01:56.314Z,18.11
2023-05-14T18:07:01.440Z,17.92
2023-05-14T18:12:04.465Z,17.78
2023-05-14T18:17:07.419Z,17.63
2023-05-14T18:22:11.679Z,17.50
2023-05-14T18:27:14.480Z,17.40
2023-05-14T18:32:17.262Z,17.30
2023-05-14T18:37:21.446Z,17.20
2023-05-14T18:42:24.371Z,17.09
2023-05-14T18:47:27.459Z,17.01
2023-05-14T18:52:32.332Z,16.81
2023-05-14T18:57:35.637Z,16.69
2023-05-14T19:02:38.628Z,16.58
2023-05-14T19:07:43.786Z,16.45
2023-05-14T19:12:47.401Z,16.30
2023-05-14T19:17:50.371Z,16.20
2023-05-14T19:22:54.618Z,16.09
2023-05-14T19:27:57.583Z,16.00
2023-05-14T19:33:00.496Z,15.94
2023-05-14T19:38:04.677Z,15.89
2023-05-14T19:43:07.922Z,15.77
2023-05-14T19:48:12.445Z,15.68
2023-05-14T19:53:16.765Z,15.63
2023-05-14T19:58:19.588Z,15.46
2023-05-14T20:03:23.546Z,15.36
2023-05-14T20:08:29.040Z,15.26
2023-05-14T20:13:32.063Z,15.16
2023-05-14T20:18:34.931Z,15.08
2023-05-14T20:23:39.179Z,14.99
2023-05-14T20:28:43.399Z,14.93
2023-05-14T20:33:46.251Z,14.81
2023-05-14T20:38:50.473Z,14.71
2023-05-14T20:43:53.306Z,14.63
2023-05-14T20:48:57.057Z,14.58
2023-05-14T20:54:02.453Z,14.51
2023-05-14T20:59:05.262Z,14.50
2023-05-14T21:04:08.363Z,14.41
2023-05-14T21:09:12.803Z,14.42
2023-05-14T21:14:15.655Z,14.37
2023-05-14T21:19:18.614Z,14.38
2023-05-14T21:24:22.996Z,14.33
2023-05-14T21:29:25.764Z,14.33
2023-05-14T21:34:29.770Z,14.34
2023-05-14T21:39:35.490Z,14.27
2023-05-14T21:44:38.353Z,14.32
2023-05-14T21:49:41.682Z,14.33
2023-05-14T21:54:45.966Z,14.29
2023-05-14T21:59:48.794Z,14.32
2023-05-14T22:04:51.614Z,14.32
2023-05-14T22:09:55.962Z,14.31
2023-05-14T22:14:58.746Z,14.21
2023-05-14T22:20:01.787Z,14.19
2023-05-14T22:25:06.784Z,14.19
2023-05-14T22:30:10.484Z,14.10
2023-05-14T22:35:13.333Z,14.06
2023-05-14T22:40:17.509Z,14.03
2023-05-14T22:45:20.372Z,13.97
2023-05-14T22:50:23.348Z,13.93
2023-05-14T22:55:27.739Z,13.88
2023-05-14T23:00:30.900Z,13.81
2023-05-14T23:05:33.801Z,13.74
2023-05-14T23:10:38.013Z,13.67
2023-05-14T23:15:40.845Z,13.58
2023-05-14T23:20:43.785Z,13.51
2023-05-14T23:25:50.090Z,13.40
2023-05-14T23:30:52.928Z,13.36
2023-05-14T23:35:55.800Z,13.31
2023-05-14T23:41:00.007Z,13.19
2023-05-14T23:46:03.158Z,13.15
2023-05-14T23:51:06.038Z,13.09
2023-05-14T23:56:10.327Z,13.07
